Time;durP1;ratioP1;P1;durP2;ratioP2;P2;SDS_P1;SDS_P2;PMS_P1;PMS_P2;Temp;Humidity;BMP_temperature;BMP_pressure;BME280_temperature;BME280_humidity;BME280_pressure;Samples;Min_cycle;Max_cycle;Signal;HPM_P1;HPM_P2
2021/05/18 00:00:09;;;;;;;4.97;1.62;;;;;;;12.05;67.95;99544.63;1720266;83;21827;-68
2021/05/18 00:02:37;;;;;;;2.75;1.57;;;;;;;12.03;68.18;99549.86;1694801;84;20973;-68
2021/05/18 00:05:04;;;;;;;4.45;1.60;;;;;;;11.99;68.39;99552.94;1720477;83;20971;-68
2021/05/18 00:07:30;;;;;;;2.80;1.15;;;;;;;11.97;68.57;99548.80;1720367;83;21061;-68
2021/05/18 00:12:40;;;;;;;5.30;2.72;;;;;;;11.94;68.92;99554.54;1720247;83;21096;-69
2021/05/18 00:15:12;;;;;;;8.43;3.60;;;;;;;11.91;69.10;99550.94;1720420;82;21597;-69
2021/05/18 00:17:38;;;;;;;8.03;3.45;;;;;;;11.87;69.26;99553.18;1694693;84;20961;-69
2021/05/18 00:20:06;;;;;;;10.43;3.77;;;;;;;11.86;69.39;99556.04;1720320;83;21747;-69
2021/05/18 00:22:32;;;;;;;5.72;2.70;;;;;;;11.84;69.54;99564.78;1720523;83;21681;-69
2021/05/18 00:24:58;;;;;;;7.25;2.70;;;;;;;11.82;69.70;99563.62;1720259;83;21115;-69
2021/05/18 00:27:24;;;;;;;4.37;1.65;;;;;;;11.80;69.85;99563.52;1720346;83;20954;-69
2021/05/18 00:29:50;;;;;;;4.12;1.85;;;;;;;11.79;69.97;99556.02;1719941;83;21085;-69
2021/05/18 00:32:16;;;;;;;4.12;1.90;;;;;;;11.77;70.05;99563.92;1720522;83;21653;-68
2021/05/18 00:34:42;;;;;;;3.95;2.08;;;;;;;11.75;70.16;99561.97;1720195;83;20999;-69
2021/05/18 00:37:08;;;;;;;3.50;1.98;;;;;;;11.73;70.22;99563.48;1720289;83;21730;-69
2021/05/18 00:39:34;;;;;;;4.25;1.70;;;;;;;11.72;70.30;99569.02;1720375;83;20860;-69
2021/05/18 00:42:00;;;;;;;4.78;1.90;;;;;;;11.71;70.36;99567.39;1719979;83;22496;-68
2021/05/18 00:44:26;;;;;;;6.05;2.55;;;;;;;11.68;70.43;99574.44;1720470;83;20887;-69
2021/05/18 00:46:52;;;;;;;4.28;2.22;;;;;;;11.67;70.48;99574.11;1694084;84;21600;-69
2021/05/18 00:49:19;;;;;;;3.00;2.17;;;;;;;11.66;70.54;99567.11;1720400;83;21123;-69
2021/05/18 00:51:45;;;;;;;4.35;2.47;;;;;;;11.64;70.61;99571.84;1719949;83;21098;-69
2021/05/18 00:54:19;;;;;;;5.25;2.60;;;;;;;11.61;70.65;99573.03;1720301;83;20920;-69
2021/05/18 00:59:05;;;;;;;5.35;2.50;;;;;;;11.58;70.76;99567.26;1691713;83;21025;-69
2021/05/18 01:01:32;;;;;;;6.53;3.20;;;;;;;11.56;70.82;99572.81;1720479;83;21084;-69
2021/05/18 01:03:59;;;;;;;5.30;2.75;;;;;;;11.53;70.87;99578.55;1694824;84;21596;-69
2021/05/18 01:09:10;;;;;;;3.87;2.25;;;;;;;11.49;70.99;99578.12;1720176;83;21617;-69
2021/05/18 01:11:38;;;;;;;5.47;2.10;;;;;;;11.48;71.02;99587.14;1720345;83;21562;-69
2021/05/18 01:14:10;;;;;;;3.52;1.80;;;;;;;11.44;71.07;99585.88;1720373;83;21568;-69
2021/05/18 01:16:38;;;;;;;2.87;1.60;;;;;;;11.42;71.12;99587.93;1678177;84;21038;-69
2021/05/18 01:19:05;;;;;;;4.25;1.62;;;;;;;11.39;71.19;99582.98;1696148;84;21144;-69
2021/05/18 01:21:31;;;;;;;8.10;1.72;;;;;;;11.36;71.25;99585.22;1695988;84;21028;-69
2021/05/18 01:23:57;;;;;;;2.60;1.98;;;;;;;11.33;71.34;99583.74;1680845;85;21025;-69
2021/05/18 01:26:24;;;;;;;5.42;2.08;;;;;;;11.30;71.38;99589.47;1695825;83;21127;-69
2021/05/18 01:28:50;;;;;;;2.37;1.75;;;;;;;11.27;71.47;99585.86;1695933;84;20973;-69
2021/05/18 01:31:24;;;;;;;2.67;1.32;;;;;;;11.23;71.53;99583.27;1695994;84;21581;-69
2021/05/18 01:33:51;;;;;;;3.12;1.72;;;;;;;11.21;71.62;99585.31;1695653;84;21577;-69
2021/05/18 01:36:19;;;;;;;5.12;2.52;;;;;;;11.19;71.69;99585.20;1680680;85;21678;-69
2021/05/18 01:39:05;;;;;;;3.27;2.12;;;;;;;11.15;71.72;99590.60;1696037;84;21697;-69
2021/05/18 01:44:10;;;;;;;3.90;1.85;;;;;;;11.12;71.87;99589.13;1695890;84;20949;-69
2021/05/18 01:46:36;;;;;;;4.40;2.12;;;;;;;11.09;71.92;99589.52;1695986;84;21592;-69
2021/05/18 01:49:07;;;;;;;10.13;3.10;;;;;;;11.05;71.98;99594.12;1696323;84;20894;-69
2021/05/18 01:51:39;;;;;;;8.85;2.67;;;;;;;11.00;72.05;99590.69;1680202;84;21821;-69
2021/05/18 01:54:09;;;;;;;8.48;3.00;;;;;;;10.96;72.11;99594.24;1696135;84;21152;-69
2021/05/18 01:59:07;;;;;;;4.22;1.82;;;;;;;10.85;72.27;99603.26;1696142;84;21549;-69
2021/05/18 02:01:33;;;;;;;4.28;2.00;;;;;;;10.79;72.35;99604.03;1695679;84;21537;-69
2021/05/18 02:03:59;;;;;;;6.45;2.17;;;;;;;10.76;72.46;99603.08;1680696;85;21859;-69
2021/05/18 02:06:26;;;;;;;4.12;1.95;;;;;;;10.71;72.48;99601.48;1695948;84;21092;-69
2021/05/18 02:08:52;;;;;;;4.37;1.42;;;;;;;10.66;72.53;99610.58;1695965;84;21115;-69
2021/05/18 02:11:18;;;;;;;3.67;1.80;;;;;;;10.60;72.59;99617.98;1696284;84;20937;-69
2021/05/18 02:13:47;;;;;;;4.90;1.72;;;;;;;10.55;72.62;99617.73;1695994;84;20914;-69
2021/05/18 02:16:23;;;;;;;4.85;2.00;;;;;;;10.49;72.67;99625.45;1688464;83;21084;-69
2021/05/18 02:26:59;;;;;;;4.25;1.90;;;;;;;10.31;72.90;99633.03;1707942;84;21017;-69
2021/05/18 02:29:25;;;;;;;4.00;1.80;;;;;;;10.26;72.95;99638.11;1707929;84;21041;-69
2021/05/18 02:31:54;;;;;;;4.83;2.20;;;;;;;10.20;73.00;99632.20;1707842;84;21108;-69
2021/05/18 02:34:19;;;;;;;5.28;2.37;;;;;;;10.16;73.05;99636.75;1707774;83;21013;-69
2021/05/18 02:36:45;;;;;;;9.10;2.65;;;;;;;10.11;73.10;99634.60;1708047;84;20862;-69
2021/05/18 02:39:11;;;;;;;5.10;2.15;;;;;;;10.05;73.16;99634.02;1720523;83;21035;-69
2021/05/18 02:41:37;;;;;;;5.20;1.67;;;;;;;10.01;73.22;99636.23;1720730;83;21060;-69
2021/05/18 02:44:19;;;;;;;4.22;2.00;;;;;;;9.96;73.28;99635.11;1719902;83;20871;-69
2021/05/18 02:49:14;;;;;;;5.45;1.70;;;;;;;9.87;73.44;99637.56;1720751;83;21027;-69
2021/05/18 02:51:42;;;;;;;2.05;1.40;;;;;;;9.81;73.49;99640.97;1720465;83;21006;-69
2021/05/18 02:54:10;;;;;;;3.47;2.00;;;;;;;9.78;73.56;99649.33;1695009;84;21661;-69
2021/05/18 02:57:11;;;;;;;4.70;1.82;;;;;;;9.74;73.62;99648.03;1720289;83;21035;-68
2021/05/18 02:59:19;;;;;;;3.75;1.77;;;;;;;9.71;73.66;99648.41;1711947;83;21094;-69
2021/05/18 03:01:50;;;;;;;3.33;2.00;;;;;;;9.68;73.75;99646.08;1720667;83;21060;-69
2021/05/18 03:04:16;;;;;;;3.95;2.05;;;;;;;9.65;73.83;99646.45;1694232;84;21109;-68
2021/05/18 03:06:42;;;;;;;7.12;2.00;;;;;;;9.63;73.88;99652.47;1720491;83;21127;-69
2021/05/18 03:09:12;;;;;;;3.30;2.22;;;;;;;9.61;73.95;99645.16;1720481;83;21104;-69
2021/05/18 03:11:40;;;;;;;;;;;;;;;9.59;74.03;99653.84;1722891;83;20999;-69
2021/05/18 03:14:07;;;;;;;4.12;1.98;;;;;;;9.54;74.10;99648.55;1720129;83;20244;-68
2021/05/18 03:16:36;;;;;;;4.37;1.82;;;;;;;9.51;74.20;99655.57;1720504;83;21067;-69
2021/05/18 03:19:02;;;;;;;4.70;2.20;;;;;;;9.50;74.26;99652.58;1720333;83;21231;-68
2021/05/18 03:21:28;;;;;;;8.78;2.37;;;;;;;9.48;74.33;99657.27;1720632;83;21092;-69
2021/05/18 03:23:55;;;;;;;3.20;1.95;;;;;;;9.48;74.40;99659.09;1720490;83;21011;-68
2021/05/18 03:26:21;;;;;;;6.17;1.82;;;;;;;9.47;74.45;99660.93;1694745;84;21124;-69
2021/05/18 03:28:53;;;;;;;2.42;1.50;;;;;;;9.48;74.51;99665.75;1720654;83;21003;-69
2021/05/18 03:34:27;;;;;;;4.42;1.77;;;;;;;9.50;74.57;99665.89;1693896;84;21880;-68
2021/05/18 03:36:27;;;;;;;3.95;1.80;;;;;;;9.51;74.64;99671.55;1720395;83;21046;-69
2021/05/18 03:38:56;;;;;;;4.35;2.05;;;;;;;9.54;74.68;99671.67;1720298;83;20911;-69
2021/05/18 03:41:27;;;;;;;3.95;2.05;;;;;;;9.57;74.71;99667.84;1720180;83;21015;-69
2021/05/18 03:44:01;;;;;;;10.38;3.80;;;;;;;9.59;74.76;99665.82;1694219;84;21705;-69
2021/05/18 03:54:32;;;;;;;14.50;5.33;;;;;;;9.85;74.81;99684.86;1720383;83;21066;-69
2021/05/18 04:18:33;;;;;;;10.20;4.40;;;;;;;9.97;74.95;99710.85;1697072;83;21625;-69
2021/05/18 04:21:09;;;;;;;7.65;3.50;;;;;;;10.03;74.94;99713.27;1680333;84;21624;-69
2021/05/18 04:40:00;;;;;;;9.10;3.37;;;;;;;10.32;74.91;99711.98;1696051;84;21087;-70
2021/05/18 04:42:29;;;;;;;8.28;3.25;;;;;;;10.35;74.88;99716.94;1678064;85;21017;-69
2021/05/18 04:50:28;;;;;;;3.60;2.02;;;;;;;10.53;74.83;99720.55;1677170;84;21553;-68
2021/05/18 05:00:40;;;;;;;7.20;3.75;;;;;;;11.00;74.71;99726.75;1668162;86;21596;-69
2021/05/18 05:16:27;;;;;;;1.45;1.27;;;;;;;11.55;74.29;99734.05;1694373;84;21742;-69
2021/05/18 05:18:53;;;;;;;6.22;2.67;;;;;;;11.56;74.17;99736.22;1703976;82;21085;-69
2021/05/18 05:21:22;;;;;;;3.15;1.47;;;;;;;11.66;74.12;99738.04;1686649;84;22405;-69
2021/05/18 05:23:48;;;;;;;3.75;2.22;;;;;;;11.75;74.03;99743.08;1707507;81;21058;-69
2021/05/18 05:26:14;;;;;;;4.55;2.05;;;;;;;11.91;73.91;99736.63;1708351;82;21644;-69
2021/05/18 05:28:40;;;;;;;4.92;2.33;;;;;;;12.03;73.78;99737.76;1683947;84;21295;-69
2021/05/18 05:31:06;;;;;;;2.70;1.60;;;;;;;12.14;73.63;99743.07;1707560;81;21684;-69
2021/05/18 05:33:32;;;;;;;3.35;1.40;;;;;;;12.21;73.50;99743.41;1698596;84;20949;-69
2021/05/18 05:35:58;;;;;;;3.55;1.90;;;;;;;12.25;73.36;99741.99;1714744;81;21001;-69
2021/05/18 05:38:25;;;;;;;4.35;2.27;;;;;;;12.28;73.26;99744.27;1689341;82;21078;-69
2021/05/18 05:40:51;;;;;;;7.35;2.35;;;;;;;12.30;73.13;99744.91;1716962;82;21109;-70
2021/05/18 05:43:17;;;;;;;4.10;2.00;;;;;;;12.27;73.00;99749.33;1716344;82;21111;-69
2021/05/18 05:45:43;;;;;;;6.10;2.02;;;;;;;12.27;72.86;99745.31;1717290;82;21012;-69
2021/05/18 05:48:09;;;;;;;4.67;1.85;;;;;;;12.22;72.73;99750.41;1682083;82;21029;-69
2021/05/18 05:50:35;;;;;;;5.12;1.87;;;;;;;12.21;72.64;99755.97;1673954;85;21635;-70
2021/05/18 05:53:01;;;;;;;3.20;1.50;;;;;;;12.15;72.48;99754.89;1679272;85;21071;-69
2021/05/18 05:55:27;;;;;;;4.90;2.65;;;;;;;12.19;72.34;99752.14;1679080;85;21559;-70
2021/05/18 05:57:53;;;;;;;5.37;2.92;;;;;;;12.24;72.23;99759.08;1678655;85;21106;-70
2021/05/18 06:00:19;;;;;;;3.33;1.40;;;;;;;12.31;72.14;99758.61;1674083;85;20975;-70
2021/05/18 06:02:45;;;;;;;4.20;2.17;;;;;;;12.35;72.06;99757.16;1678867;84;21028;-70
2021/05/18 06:05:11;;;;;;;3.85;1.75;;;;;;;12.40;71.97;99765.44;1679020;85;21836;-70
2021/05/18 06:07:37;;;;;;;5.20;1.60;;;;;;;12.43;71.86;99762.36;1679035;85;20893;-69
2021/05/18 06:10:28;;;;;;;2.83;1.35;;;;;;;12.44;71.77;99767.20;1671788;85;21656;-69
2021/05/18 06:42:35;;;;;;;2.58;1.92;;;;;;;14.42;70.04;99778.13;1681311;85;21031;-70
2021/05/18 06:47:33;;;;;;;6.10;2.30;;;;;;;14.86;69.49;99778.70;1682306;85;21092;-70
2021/05/18 06:52:46;;;;;;;4.58;1.72;;;;;;;14.94;68.88;99778.98;1682686;85;20992;-70
2021/05/18 06:55:20;;;;;;;1.82;1.30;;;;;;;14.85;68.52;99775.70;1682350;85;21036;-70
2021/05/18 06:57:48;;;;;;;4.22;2.20;;;;;;;14.69;68.29;99790.12;1682080;84;21132;-70
2021/05/18 07:00:22;;;;;;;5.30;2.30;;;;;;;14.64;68.12;99791.25;1682476;85;21028;-70
2021/05/18 07:02:43;;;;;;;2.25;1.70;;;;;;;14.77;67.99;99791.23;1678514;85;21067;-70
2021/05/18 07:05:27;;;;;;;3.80;1.40;;;;;;;15.22;67.79;99792.06;1682393;85;21108;-70
2021/05/18 07:07:48;;;;;;;2.62;1.45;;;;;;;15.39;67.38;99796.72;1679544;85;21533;-70
2021/05/18 07:10:12;;;;;;;5.65;2.12;;;;;;;15.21;67.17;99797.13;1682166;85;21696;-70
2021/05/18 07:12:38;;;;;;;6.47;2.70;;;;;;;15.24;67.07;99798.86;1681765;85;20980;-70
2021/05/18 07:15:06;;;;;;;8.55;3.50;;;;;;;15.27;66.84;99803.00;1682420;85;21686;-70
2021/05/18 07:17:32;;;;;;;5.33;2.65;;;;;;;15.39;66.70;99807.47;1681917;85;21675;-70
2021/05/18 07:19:58;;;;;;;3.02;1.45;;;;;;;15.57;66.40;99808.63;1671862;85;20955;-70
2021/05/18 07:22:24;;;;;;;5.60;1.40;;;;;;;15.63;66.08;99799.70;1671918;85;21190;-70
2021/05/18 07:24:50;;;;;;;3.52;1.80;;;;;;;15.81;65.81;99809.19;1671905;85;20920;-70
2021/05/18 07:27:16;;;;;;;21.17;10.80;;;;;;;15.93;65.56;99804.77;1674208;85;20992;-70
2021/05/18 07:29:42;;;;;;;5.42;2.87;;;;;;;15.94;65.28;99807.73;1678912;84;21040;-70
2021/05/18 07:32:08;;;;;;;8.18;2.17;;;;;;;15.84;65.05;99815.47;1679543;85;20945;-70
2021/05/18 07:34:34;;;;;;;2.60;1.52;;;;;;;15.89;64.90;99811.62;1679414;85;21232;-70
2021/05/18 07:37:00;;;;;;;5.85;2.80;;;;;;;15.91;64.71;99807.66;1679093;85;20929;-70
2021/05/18 07:39:26;;;;;;;7.87;3.70;;;;;;;15.91;64.47;99812.21;1671897;85;20947;-70
2021/05/18 07:41:51;;;;;;;4.15;1.72;;;;;;;15.84;64.32;99808.75;1673899;85;20965;-70
2021/05/18 07:44:17;;;;;;;6.45;1.30;;;;;;;15.92;64.27;99812.52;1679552;85;20948;-70
2021/05/18 07:46:45;;;;;;;3.87;2.12;;;;;;;16.05;64.20;99812.92;1679367;85;21125;-70
2021/05/18 07:49:15;;;;;;;4.92;1.57;;;;;;;16.12;64.03;99815.87;1671872;85;21003;-70
2021/05/18 07:59:12;;;;;;;3.10;1.70;;;;;;;16.02;63.87;99820.92;1671461;85;21110;-70
2021/05/18 07:59:59;;;;;;;3.15;1.72;;;;;;;15.85;63.43;99823.84;1671479;85;21070;-69
2021/05/18 08:07:35;;;;;;;6.72;2.47;;;;;;;15.79;63.06;99831.45;1679242;85;21097;-69
2021/05/18 08:10:19;;;;;;;5.47;2.35;;;;;;;15.68;62.97;99829.45;1679480;85;21048;-69
2021/05/18 08:12:44;;;;;;;2.27;1.30;;;;;;;15.56;62.88;99825.28;1678384;85;21512;-69
2021/05/18 08:15:32;;;;;;;3.37;1.40;;;;;;;15.51;62.85;99835.04;1674089;85;21489;-69
2021/05/18 09:47:40;;;;;;;3.15;1.37;;;;;;;15.47;62.54;99856.11;1817079;78;21726;-69
2021/05/18 10:34:41;;;;;;;5.05;1.60;;;;;;;14.00;61.71;99877.77;1780155;80;21046;-69
2021/05/18 10:37:36;;;;;;;4.90;1.57;;;;;;;13.82;62.02;99872.16;1778143;80;21050;-69
2021/05/18 10:40:25;;;;;;;5.30;2.00;;;;;;;13.56;62.42;99880.13;1739086;80;21036;-69
2021/05/18 10:43:24;;;;;;;3.42;1.57;;;;;;;13.44;62.79;99886.06;1788203;79;21126;-69
2021/05/18 10:46:01;;;;;;;4.47;2.30;;;;;;;13.37;63.18;99881.73;1788716;80;21535;-69
2021/05/18 10:48:36;;;;;;;4.05;1.70;;;;;;;13.29;63.58;99881.39;1777490;80;21812;-69
2021/05/18 10:51:26;;;;;;;4.22;2.45;;;;;;;13.24;63.94;99874.45;1778273;80;21074;-69
2021/05/18 10:54:17;;;;;;;4.20;2.22;;;;;;;13.18;64.29;99868.57;1785040;80;21121;-69
2021/05/18 10:57:01;;;;;;;2.25;1.70;;;;;;;13.17;64.61;99865.57;1787028;80;21656;-69
2021/05/18 10:59:32;;;;;;;2.85;1.62;;;;;;;13.18;64.91;99861.88;1781694;80;21586;-68
2021/05/18 11:02:34;;;;;;;3.17;1.47;;;;;;;13.20;65.19;99867.84;1782207;80;21098;-69
2021/05/18 11:05:13;;;;;;;5.22;1.55;;;;;;;13.27;65.39;99867.86;1780086;80;21068;-69
2021/05/18 11:07:40;;;;;;;7.37;1.55;;;;;;;13.37;65.55;99867.80;1784415;80;21047;-69
2021/05/18 11:10:15;;;;;;;2.60;1.43;;;;;;;13.54;65.69;99882.20;1780349;78;21595;-69
2021/05/18 11:12:45;;;;;;;3.30;1.30;;;;;;;13.71;65.83;99881.63;1777774;78;21287;-69
2021/05/18 11:15:20;;;;;;;2.92;1.60;;;;;;;13.91;65.98;99882.99;1781244;80;21084;-69
2021/05/18 11:17:49;;;;;;;7.15;2.77;;;;;;;14.04;66.02;99880.31;1781273;80;21553;-69
2021/05/18 11:23:31;;;;;;;5.17;4.12;;;;;;;14.39;65.96;99877.78;1779416;80;21121;-69
2021/05/18 11:26:08;;;;;;;7.10;3.90;;;;;;;14.52;65.92;99878.82;1784571;80;21557;-69
2021/05/18 11:28:44;;;;;;;6.37;3.42;;;;;;;14.66;65.88;99870.55;1784284;80;21063;-69
2021/05/18 11:31:13;;;;;;;3.90;2.83;;;;;;;14.76;65.71;99868.77;1788294;80;21084;-69
2021/05/18 11:33:41;;;;;;;5.25;2.25;;;;;;;14.90;65.67;99872.55;1786750;80;21000;-69
2021/05/18 11:36:15;;;;;;;2.25;1.82;;;;;;;15.06;65.59;99872.59;1785727;80;21271;-69
2021/05/18 11:39:07;;;;;;;1.95;1.52;;;;;;;15.11;65.50;99871.45;1781150;80;21020;-69
2021/05/18 11:41:40;;;;;;;3.02;1.82;;;;;;;15.18;65.45;99880.31;1769882;79;21049;-69
2021/05/18 11:44:07;;;;;;;3.60;2.02;;;;;;;15.23;65.30;99875.66;1783525;79;21620;-69
2021/05/18 11:46:35;;;;;;;4.70;1.60;;;;;;;15.22;65.29;99876.17;1788455;79;21084;-70
2021/05/18 11:49:08;;;;;;;4.12;2.00;;;;;;;15.20;65.27;99871.51;1778686;79;21062;-69
2021/05/18 11:51:49;;;;;;;3.55;2.15;;;;;;;15.21;65.25;99873.17;1782477;79;21078;-69
2021/05/18 11:54:17;;;;;;;4.55;2.20;;;;;;;15.16;65.22;99866.28;1786072;79;21070;-69
2021/05/18 11:56:45;;;;;;;6.75;2.92;;;;;;;14.90;65.27;99860.98;1776806;79;21081;-69
2021/05/18 11:59:17;;;;;;;6.50;3.35;;;;;;;14.90;65.27;99860.98;1783052;79;21067;-69
2021/05/18 12:02:03;;;;;;;6.25;3.22;;;;;;;14.93;65.19;99882.04;1782785;79;21750;-69
2021/05/18 12:04:31;;;;;;;10.90;4.17;;;;;;;14.83;65.23;99884.34;1786169;79;21619;-69
2021/05/18 12:07:13;;;;;;;5.62;2.50;;;;;;;14.66;65.52;99899.23;1783873;79;21050;-69
2021/05/18 12:09:38;;;;;;;2.90;1.77;;;;;;;14.66;65.52;99899.23;1785546;78;21089;-69
2021/05/18 12:12:10;;;;;;;4.95;2.02;;;;;;;14.47;65.56;99896.36;1757097;78;21141;-69
2021/05/18 12:14:45;;;;;;;4.85;2.30;;;;;;;14.33;65.69;99904.58;1785281;78;21140;-69
2021/05/18 12:17:11;;;;;;;5.75;2.20;;;;;;;14.20;65.92;99905.41;1787102;79;21021;-69
2021/05/18 12:19:38;;;;;;;2.85;1.87;;;;;;;14.07;66.10;99910.77;1782351;79;20937;-69
2021/05/18 12:22:04;;;;;;;3.65;1.92;;;;;;;13.92;66.26;99920.33;1781479;79;21713;-69
2021/05/18 12:24:30;;;;;;;13.10;4.42;;;;;;;13.88;66.41;99919.59;1784246;79;21080;-69
2021/05/18 12:27:02;;;;;;;6.97;2.98;;;;;;;13.84;66.57;99926.38;1779678;78;21090;-69
2021/05/18 12:29:41;;;;;;;4.47;3.22;;;;;;;13.83;66.80;99922.03;1785212;79;21556;-69
2021/05/18 12:32:20;;;;;;;4.63;2.63;;;;;;;13.95;67.04;99931.16;1779735;79;21066;-69
2021/05/18 12:34:53;;;;;;;4.37;2.55;;;;;;;14.05;67.30;99924.87;1786413;79;21052;-69
2021/05/18 12:37:36;;;;;;;5.08;2.62;;;;;;;14.18;67.56;99920.86;1781351;78;21953;-69
2021/05/18 12:40:10;;;;;;;4.42;2.67;;;;;;;14.29;67.79;99925.63;1781725;79;21729;-70
2021/05/18 12:42:36;;;;;;;9.30;2.70;;;;;;;14.39;68.01;99922.05;1783024;78;21590;-69
2021/05/18 12:45:06;;;;;;;6.12;2.15;;;;;;;14.49;68.23;99918.43;1788215;79;21024;-69
2021/05/18 12:47:37;;;;;;;;;;;;;;;14.57;68.35;99915.23;1782910;79;21531;-69
2021/05/18 12:50:08;;;;;;;1.95;1.70;;;;;;;14.71;68.50;99911.50;1788841;79;20633;-69
2021/05/18 12:52:41;;;;;;;5.70;2.85;;;;;;;14.81;68.59;99918.64;1787182;79;21092;-69
2021/05/18 12:55:30;;;;;;;3.75;2.22;;;;;;;14.90;68.65;99915.52;1788887;79;21118;-69
2021/05/18 12:58:05;;;;;;;6.30;3.80;;;;;;;15.61;68.60;99906.62;1783910;79;21024;-69
2021/05/18 13:00:35;;;;;;;4.62;2.83;;;;;;;15.61;68.60;99906.62;1751483;80;21073;-69
2021/05/18 13:03:20;;;;;;;7.60;3.15;;;;;;;15.94;68.52;99904.55;1786280;79;26913;-69
2021/05/18 13:05:51;;;;;;;7.92;5.20;;;;;;;16.00;68.37;99914.47;1781690;79;21056;-69
2021/05/18 13:08:19;;;;;;;6.45;2.95;;;;;;;15.97;68.22;99913.56;1780212;79;21137;-69
2021/05/18 13:13:47;;;;;;;2.05;1.60;;;;;;;15.95;68.01;99912.94;1786433;79;21068;-70
2021/05/18 13:16:23;;;;;;;6.30;1.80;;;;;;;15.82;67.70;99910.33;1786411;79;21060;-70
2021/05/18 13:18:59;;;;;;;6.47;2.27;;;;;;;15.78;67.48;99913.97;1778212;79;21958;-69
2021/05/18 13:21:39;;;;;;;4.90;2.52;;;;;;;15.80;67.25;99913.73;1786407;79;21996;-69
2021/05/18 13:26:35;;;;;;;3.37;2.27;;;;;;;15.92;66.69;99914.72;1787829;79;21614;-69
2021/05/18 13:29:15;;;;;;;3.72;2.17;;;;;;;16.20;66.45;99916.49;1783048;79;21070;-70
2021/05/18 13:31:38;;;;;;;9.43;5.47;;;;;;;16.52;66.10;99913.77;1779101;79;21106;-69
2021/05/18 13:34:04;;;;;;;13.43;8.13;;;;;;;16.87;65.76;99918.44;1780460;79;21342;-69
2021/05/18 13:36:33;;;;;;;6.20;2.80;;;;;;;17.12;65.39;99910.30;1776183;79;21589;-69
2021/05/18 13:39:06;;;;;;;2.80;1.37;;;;;;;17.25;65.05;99920.09;1788826;79;21568;-69
2021/05/18 13:41:33;;;;;;;3.10;2.35;;;;;;;16.92;64.49;99940.67;1786335;79;21040;-69
2021/05/18 13:44:01;;;;;;;3.70;2.45;;;;;;;16.38;64.31;99942.14;1782429;78;21180;-69
2021/05/18 13:46:27;;;;;;;4.00;1.92;;;;;;;16.14;64.51;99945.63;1785015;80;21118;-69
2021/05/18 13:48:53;;;;;;;2.70;2.30;;;;;;;16.15;64.59;99948.59;1788097;80;21101;-69
2021/05/18 13:51:19;;;;;;;2.50;1.32;;;;;;;16.14;64.54;99952.87;1780230;80;22000;-69
2021/05/18 13:53:46;;;;;;;7.17;2.20;;;;;;;16.05;64.46;99955.49;1780426;80;20964;-69
2021/05/18 13:56:12;;;;;;;3.65;2.30;;;;;;;15.75;64.46;99956.08;1783989;80;21083;-69
2021/05/18 13:58:38;;;;;;;6.70;1.72;;;;;;;15.57;64.57;99953.27;1781604;80;20921;-69
2021/05/18 14:01:05;;;;;;;5.92;3.75;;;;;;;15.49;64.65;99952.98;1779690;80;20889;-69
2021/05/18 14:03:32;;;;;;;1.52;1.02;;;;;;;15.51;64.74;99954.64;1783542;80;22241;-69
2021/05/18 14:05:58;;;;;;;4.08;1.92;;;;;;;15.65;64.73;99955.72;1780970;80;21027;-69
2021/05/18 14:08:31;;;;;;;2.47;1.55;;;;;;;15.67;64.62;99956.31;1781833;80;22036;-69
2021/05/18 14:11:05;;;;;;;4.17;2.12;;;;;;;15.81;64.61;99959.25;1783668;80;21545;-69
2021/05/18 14:13:33;;;;;;;4.50;2.72;;;;;;;15.78;64.43;99953.48;1778637;80;21512;-69
2021/05/18 14:16:00;;;;;;;6.83;3.27;;;;;;;15.68;64.28;99957.15;1781277;80;21102;-69
2021/05/18 14:18:27;;;;;;;5.30;3.30;;;;;;;15.43;64.15;99964.55;1781593;80;21015;-69
2021/05/18 14:20:53;;;;;;;4.08;2.27;;;;;;;15.33;64.21;99954.77;1784453;80;21173;-69
2021/05/18 14:23:22;;;;;;;8.88;5.50;;;;;;;15.33;64.25;99957.97;1779349;80;21058;-69
2021/05/18 14:25:47;;;;;;;7.30;5.10;;;;;;;15.43;64.30;99961.86;1784019;80;21637;-69
2021/05/18 14:28:13;;;;;;;5.87;4.08;;;;;;;15.47;64.13;99956.89;1784635;80;20948;-69
2021/05/18 14:30:39;;;;;;;6.97;3.70;;;;;;;15.35;63.96;99963.95;1785291;80;21000;-69
2021/05/18 14:33:05;;;;;;;2.55;1.82;;;;;;;15.16;63.93;99969.70;1781313;78;21146;-69
2021/05/18 14:35:31;;;;;;;4.72;2.60;;;;;;;14.95;63.90;99966.71;1775678;79;21598;-69
2021/05/18 14:38:04;;;;;;;8.63;3.67;;;;;;;14.74;63.96;99971.51;1784628;80;21432;-69
2021/05/18 14:40:41;;;;;;;9.65;5.20;;;;;;;14.52;64.02;99958.80;1788893;78;21010;-69
2021/05/18 14:45:30;;;;;;;10.55;6.28;;;;;;;14.31;64.29;99973.20;1788315;80;21532;-69
2021/05/18 14:55:57;;;;;;;5.55;3.40;;;;;;;13.70;65.68;99979.63;1785204;80;21624;-68
2021/05/18 14:58:24;;;;;;;5.42;3.35;;;;;;;13.69;66.03;99982.81;1785411;80;21158;-69
2021/05/18 15:00:50;;;;;;;8.00;3.92;;;;;;;13.74;66.26;99972.34;1778048;80;21082;-69
2021/05/18 15:03:16;;;;;;;23.10;14.05;;;;;;;13.78;66.49;99984.82;1789405;78;21042;-69
2021/05/18 15:05:42;;;;;;;9.90;7.33;;;;;;;13.83;66.71;99985.03;1748040;81;20870;-69
2021/05/18 15:08:08;;;;;;;10.20;7.80;;;;;;;13.78;66.91;99982.14;1731527;82;21107;-69
2021/05/18 15:10:34;;;;;;;8.35;5.55;;;;;;;13.78;67.13;99986.16;1725700;82;21061;-69
2021/05/18 15:13:01;;;;;;;6.47;4.28;;;;;;;13.81;67.31;99996.48;1724956;82;21630;-69
2021/05/18 15:15:27;;;;;;;6.65;4.75;;;;;;;13.74;67.46;100001.81;1718893;82;21071;-69
2021/05/18 15:17:58;;;;;;;16.15;12.37;;;;;;;13.73;67.58;100002.00;1727408;82;21693;-69
2021/05/18 15:20:23;;;;;;;3.50;2.40;;;;;;;13.76;67.74;100005.62;1729778;82;21032;-69
2021/05/18 15:22:49;;;;;;;5.00;3.62;;;;;;;13.74;67.86;99998.30;1719159;82;21094;-69
2021/05/18 15:25:16;;;;;;;7.72;4.62;;;;;;;13.64;68.04;100000.02;1728251;82;21068;-69
2021/05/18 15:27:42;;;;;;;4.67;3.02;;;;;;;13.59;68.20;100006.48;1748223;81;21484;-68
2021/05/18 15:30:09;;;;;;;5.30;3.42;;;;;;;13.57;68.38;100017.09;1728838;82;21092;-69
2021/05/18 15:32:35;;;;;;;6.28;4.12;;;;;;;13.52;68.54;100019.02;1723857;82;21053;-69
2021/05/18 15:35:01;;;;;;;4.85;3.17;;;;;;;13.48;68.73;100018.59;1720381;82;21443;-69
2021/05/18 15:37:27;;;;;;;4.40;2.35;;;;;;;13.42;68.92;100019.38;1732969;82;20917;-69
2021/05/18 15:39:53;;;;;;;4.08;2.58;;;;;;;13.44;69.13;100026.70;1749672;81;20903;-69
2021/05/18 15:42:19;;;;;;;5.10;2.90;;;;;;;13.43;69.26;100029.08;1715139;82;20903;-69
2021/05/18 15:44:46;;;;;;;5.65;2.95;;;;;;;13.41;69.39;100031.11;1753318;81;21002;-69
2021/05/18 15:47:12;;;;;;;8.58;3.80;;;;;;;13.40;69.51;100032.67;1723968;82;21177;-69
2021/05/18 15:49:38;;;;;;;10.60;4.72;;;;;;;13.37;69.62;100031.73;1721936;82;21520;-69
2021/05/18 15:52:04;;;;;;;17.82;7.12;;;;;;;13.30;69.73;100033.53;1728039;82;20894;-69
2021/05/18 15:54:30;;;;;;;14.63;7.70;;;;;;;13.23;69.86;100036.14;1751350;81;21047;-69
2021/05/18 15:56:56;;;;;;;14.55;7.50;;;;;;;13.15;69.91;100038.99;1752833;81;21611;-69
2021/05/18 15:59:24;;;;;;;24.55;11.48;;;;;;;13.08;69.98;100035.41;1720803;82;21047;-69
2021/05/18 16:01:50;;;;;;;16.45;6.62;;;;;;;13.04;70.04;100035.48;1748913;80;21133;-69
2021/05/18 16:04:16;;;;;;;15.95;7.60;;;;;;;12.97;70.07;100036.77;1728878;82;21051;-69
2021/05/18 16:06:43;;;;;;;16.02;7.92;;;;;;;12.90;70.14;100029.70;1754403;81;21020;-68
2021/05/18 16:09:12;;;;;;;26.33;11.68;;;;;;;12.88;70.26;100040.59;1722040;83;21044;-69
2021/05/18 16:11:39;;;;;;;19.37;10.28;;;;;;;12.88;70.34;100031.73;1727947;82;21218;-69
2021/05/18 16:14:05;;;;;;;24.45;13.15;;;;;;;12.87;70.41;100036.78;1740528;81;21094;-69
2021/05/18 16:16:31;;;;;;;14.40;9.25;;;;;;;12.93;70.51;100033.33;1715375;82;21054;-68
2021/05/18 16:18:57;;;;;;;19.23;9.88;;;;;;;13.01;70.55;100027.84;1749488;81;21078;-69
2021/05/18 16:21:24;;;;;;;27.70;17.07;;;;;;;13.02;70.56;100025.45;1726280;82;21653;-68
2021/05/18 16:23:53;;;;;;;20.80;16.77;;;;;;;13.03;70.60;100028.45;1727571;82;21802;-69
2021/05/18 16:26:23;;;;;;;21.07;10.45;;;;;;;13.07;70.66;100030.23;1735356;82;21142;-69
2021/05/18 16:28:49;;;;;;;19.48;9.95;;;;;;;13.09;70.68;100025.02;1734410;82;21571;-69
2021/05/18 16:31:15;;;;;;;17.23;7.47;;;;;;;13.09;70.76;100029.04;1729907;82;21080;-69
2021/05/18 16:33:41;;;;;;;15.38;8.65;;;;;;;13.14;70.84;100032.48;1749999;81;21395;-69
2021/05/18 16:36:08;;;;;;;28.07;13.70;;;;;;;13.15;70.88;100036.31;1726966;82;21102;-69
2021/05/18 16:38:34;;;;;;;25.37;14.47;;;;;;;13.20;70.95;100033.03;1750850;81;21521;-69